Flight Track Log - Related Links

Times and Time Zones

All times are in EDT time to prevent confusion due to time zone crossing. See the SWA305 flight status page for this flight to view local times or setup timezone preferences in your user account.

Time Position Orientation Groundspeed Altitude Reporting Facility
EDT Latitude Longitude Course Direction KTS MPH feet Rate Location/Type
Thu 12:15:46 PM 45.6261 -122.6928 302° West 212 244 3,000  Level Seattle Center
Thu 12:16:40 PM 45.6578 -122.7756 299° West 274 315 5,400 2,810 Climbing Seattle Center
Thu 12:17:52 PM 45.6094 -122.8528 228° Southwest 283 326 8,900 2,571 Climbing Seattle Center
Thu 12:18:53 PM 45.5394 -122.7828 145° Southeast 314 361 11,100 2,557 Climbing Seattle Center
Thu 12:19:54 PM 45.4675 -122.6864 137° Southeast 354 407 14,100 2,870 Climbing Seattle Center
Thu 12:21:00 PM 45.3570 -122.6265 159° South  Level Estimated
Thu 12:21:57 PM 45.3144 -122.4822 159° South 383 441 19,900  Level Seattle Center
Thu 12:22:58 PM 45.2317 -122.3733 137° Southeast 401 461 22,600 2,557 Climbing Seattle Center
Thu 12:23:59 PM 45.1453 -122.2603 137° Southeast 417 480 25,100 2,262 Climbing Seattle Center
Thu 12:25:00 PM 45.0539 -122.1483 139° Southeast 430 495 27,200 1,967 Climbing Seattle Center
Thu 12:26:01 PM 44.9411 -122.0681 153° Southeast 448 516 29,100 1,805 Climbing Seattle Center
Thu 12:27:03 PM 44.8261 -121.9933 155° Southeast 454 522 30,900 2,000 Climbing Seattle Center
Thu 12:28:04 PM 44.7100 -121.9153 154° Southeast 459 528 33,200 2,164 Climbing Seattle Center
Thu 12:29:05 PM 44.5908 -121.8367 155° Southeast 446 513 35,300 1,721 Climbing Seattle Center
Thu 12:30:06 PM 44.4775 -121.7692 157° South 445 512 36,700 1,426 Climbing Seattle Center
Thu 12:31:07 PM 44.3614 -121.7089 160° South 447 514 38,200 1,122 Climbing Seattle Center
Thu 12:32:09 PM 44.2464 -121.6481 159° South 446 513 39,000 390 Climbing Seattle Center
Thu 12:33:10 PM 44.1083 -121.5756 159° South 444 511 39,000  Level Seattle Center
Thu 12:34:11 PM 43.9936 -121.5167 160° South 442 509 39,000  Level Seattle Center
Thu 12:35:12 PM 43.8789 -121.4572 160° South 441 507 39,000  Level Seattle Center
Thu 12:36:13 PM 43.7542 -121.3936 160° South 442 509 39,000  Level Seattle Center
Thu 12:37:15 PM 43.6383 -121.3333 159° South 443 510 39,000  Level Seattle Center
Thu 12:38:16 PM 43.5228 -121.2728 159° South 444 511 39,000  Level Seattle Center
Thu 12:39:17 PM 43.4075 -121.2139 160° South 443 510 39,000  Level Seattle Center
Thu 12:40:18 PM 43.2939 -121.1558 160° South 437 503 39,000  Level Seattle Center
Thu 12:41:19 PM 43.1806 -121.1008 161° South 433 498 39,000  Level Seattle Center
Thu 12:42:21 PM 43.0681 -121.0439 160° South 431 496 39,000  Level Seattle Center
Thu 12:43:21 PM 42.9550 -120.9869 160° South 431 496 39,000  Level Seattle Center
Thu 12:44:23 PM 42.8428 -120.9325 160° South 429 494 39,000  Level Seattle Center
Thu 12:45:24 PM 42.7303 -120.8758 160° South 429 494 39,000  Level Seattle Center
Thu 12:46:25 PM 42.6175 -120.8200 160° South 430 495 39,000  Level Seattle Center
Thu 12:47:26 PM 42.5044 -120.7642 160° South 432 497 39,000  Level Seattle Center
Thu 12:48:27 PM 42.3661 -120.6964 160° South 439 505 39,000  Level Seattle Center
Thu 12:49:29 PM 42.2511 -120.6403 160° South 439 505 39,000  Level Seattle Center
Thu 12:50:30 PM 42.1361 -120.5847 160° South 438 504 39,000  Level Seattle Center
Thu 12:51:31 PM 42.0211 -120.5281 160° South 440 506 39,000  Level Seattle Center
Thu 12:52:32 PM 41.9056 -120.4725 160° South 440 506 39,000  Level Seattle Center
Thu 12:53:33 PM 41.7906 -120.4172 160° South 439 505 39,000  Level Seattle Center
Thu 12:54:34 PM 41.6756 -120.3631 161° South 438 504 39,000 -488 Level Seattle Center
Thu 12:55:36 PM 41.5611 -120.3083 160° South 438 504 38,000 -927 Descending Seattle Center
Thu 12:56:37 PM 41.4483 -120.2531 160° South 433 498 37,100 -934 Descending Seattle Center
Thu 12:57:38 PM 41.3328 -120.1992 161° South 436 502 36,100 -1,377 Descending Seattle Center
Thu 12:58:39 PM 41.2186 -120.1453 160° South 437 503 34,300 -1,525 Descending Seattle Center
Thu 12:59:40 PM 41.1050 -120.0994 163° South 427 491 33,000 -1,180 Descending Seattle Center
Thu 01:00:41 PM 40.9667 -120.0603 168° South 424 488 31,900 -1,073 Descending Seattle Center
Thu 01:01:43 PM 40.8533 -120.0286 168° South 419 482 30,800 -1,122 Descending Seattle Center
Thu 01:02:44 PM 40.7433 -119.9956 167° South 409 471 29,600 -1,770 Descending Seattle Center
Thu 01:03:45 PM 40.6325 -119.9653 168° South 408 470 27,200 -2,262 Descending Seattle Center
Thu 01:04:46 PM 40.5322 -119.9447 171° South 399 459 25,000 -2,902 Descending Seattle Center
Thu 01:05:47 PM 40.4022 -119.9164 171° South 397 457 21,300 -3,393 Descending Seattle Center
Thu 01:06:48 PM 40.2919 -119.8933 171° South 401 461 18,100 -2,951 Descending Seattle Center
Thu 01:07:49 PM 40.1822 -119.8711 171° South 399 459 15,300 -2,213 Descending Seattle Center
Thu 01:08:50 PM 40.0789 -119.8486 171° South 384 442 13,600 -1,767 Descending Seattle Center
Thu 01:10:15 PM 39.9444 -119.8219 171° South 362 417 11,000 -1,265 Descending Oakland Center
Thu 01:11:17 PM 39.8561 -119.8033 171° South 345 397 10,500 -677 Descending Oakland Center
Thu 01:12:19 PM 39.7831 -119.7878 171° South 307 353 9,600 -1,024 Descending Oakland Center
Thu 01:13:20 PM 39.7133 -119.7722 170° South 273 314 8,400 -1,073 Descending Oakland Center
Thu 01:14:22 PM 39.6431 -119.7678 177° South 260 299 7,400 -1,381 Descending Oakland Center
Thu 01:15:13 PM 39.5833 -119.7667 179° South 204 235 5,800 -1,351 Descending Northern Cal TRACON
Thu 01:16:13 PM 39.5333 -119.7667 180° South 159 183 4,900 -900 Descending Northern Cal TRACON
Thu 01:18:00 PM 39.4991 -119.7681 180° South  Level Estimated

Login

Don't have an account? Register now (free) for customized features, flight alerts, and more!